sensor_id;sensor_type;location;lat;lon;timestamp;pressure;altitude;pressure_sealevel;temperature;humidity
35918;BME280;22011;59.912;30.300;2022-08-19T00:00:40;101986.72;;;24.47;54.88
35918;BME280;22011;59.912;30.300;2022-08-19T00:03:07;101989.38;;;24.54;55.64
35918;BME280;22011;59.912;30.300;2022-08-19T00:05:35;101994.84;;;24.54;54.59
35918;BME280;22011;59.912;30.300;2022-08-19T00:08:03;101993.63;;;24.50;55.30
35918;BME280;22011;59.912;30.300;2022-08-19T00:10:32;101997.84;;;24.45;55.47
35918;BME280;22011;59.912;30.300;2022-08-19T00:13:00;101989.38;;;24.35;54.79
35918;BME280;22011;59.912;30.300;2022-08-19T00:15:27;101989.69;;;24.27;55.42
35918;BME280;22011;59.912;30.300;2022-08-19T00:17:55;101986.31;;;24.25;55.69
35918;BME280;22011;59.912;30.300;2022-08-19T00:20:22;101986.97;;;24.27;55.21
35918;BME280;22011;59.912;30.300;2022-08-19T00:22:50;101985.91;;;24.28;55.40
35918;BME280;22011;59.912;30.300;2022-08-19T00:25:18;101989.28;;;24.24;55.50
35918;BME280;22011;59.912;30.300;2022-08-19T00:27:47;101988.72;;;24.15;56.14
35918;BME280;22011;59.912;30.300;2022-08-19T00:30:15;101992.75;;;24.12;56.15
35918;BME280;22011;59.912;30.300;2022-08-19T00:32:42;101983.81;;;24.05;56.18
35918;BME280;22011;59.912;30.300;2022-08-19T00:35:10;101986.91;;;24.09;57.28
35918;BME280;22011;59.912;30.300;2022-08-19T00:37:38;101992.41;;;24.02;56.10
35918;BME280;22011;59.912;30.300;2022-08-19T00:40:11;101994.91;;;24.04;56.32
35918;BME280;22011;59.912;30.300;2022-08-19T00:42:39;101993.53;;;23.95;56.32
35918;BME280;22011;59.912;30.300;2022-08-19T00:45:13;101993.25;;;24.03;56.48
35918;BME280;22011;59.912;30.300;2022-08-19T00:47:42;101991.31;;;24.10;57.48
35918;BME280;22011;59.912;30.300;2022-08-19T00:50:13;101986.53;;;24.05;56.96
35918;BME280;22011;59.912;30.300;2022-08-19T00:52:43;101986.16;;;24.20;56.41
35918;BME280;22011;59.912;30.300;2022-08-19T00:55:13;101982.59;;;24.20;57.11
35918;BME280;22011;59.912;30.300;2022-08-19T00:57:46;101983.81;;;24.24;56.09
35918;BME280;22011;59.912;30.300;2022-08-19T01:00:18;101983.06;;;24.17;56.76
35918;BME280;22011;59.912;30.300;2022-08-19T01:02:46;101973.53;;;24.07;56.06
35918;BME280;22011;59.912;30.300;2022-08-19T01:05:16;101994.47;;;24.07;56.00
35918;BME280;22011;59.912;30.300;2022-08-19T01:07:47;101989.69;;;24.02;55.95
35918;BME280;22011;59.912;30.300;2022-08-19T01:10:19;101989.47;;;24.04;57.70
35918;BME280;22011;59.912;30.300;2022-08-19T01:12:49;101982.13;;;23.86;56.52
35918;BME280;22011;59.912;30.300;2022-08-19T01:15:22;101985.84;;;23.92;56.70
35918;BME280;22011;59.912;30.300;2022-08-19T01:17:51;101991.19;;;23.80;56.56
35918;BME280;22011;59.912;30.300;2022-08-19T01:20:22;101996.75;;;23.92;57.77
35918;BME280;22011;59.912;30.300;2022-08-19T01:22:53;102006.03;;;23.84;56.84
35918;BME280;22011;59.912;30.300;2022-08-19T01:25:24;102006.09;;;23.77;57.08
35918;BME280;22011;59.912;30.300;2022-08-19T01:27:53;102002.84;;;23.62;57.34
35918;BME280;22011;59.912;30.300;2022-08-19T01:30:24;102007.69;;;23.60;58.59
35918;BME280;22011;59.912;30.300;2022-08-19T01:32:52;102002.31;;;23.47;57.97
35918;BME280;22011;59.912;30.300;2022-08-19T01:35:21;102006.88;;;23.53;58.97
35918;BME280;22011;59.912;30.300;2022-08-19T01:37:53;102011.91;;;23.56;58.01
35918;BME280;22011;59.912;30.300;2022-08-19T01:40:24;102015.31;;;23.45;58.30
35918;BME280;22011;59.912;30.300;2022-08-19T01:42:53;102012.97;;;23.48;58.06
35918;BME280;22011;59.912;30.300;2022-08-19T01:45:23;102012.31;;;23.53;57.96
35918;BME280;22011;59.912;30.300;2022-08-19T01:47:50;102015.47;;;23.50;57.79
35918;BME280;22011;59.912;30.300;2022-08-19T01:50:18;102020.75;;;23.45;58.42
35918;BME280;22011;59.912;30.300;2022-08-19T01:52:46;102025.09;;;23.53;59.56
35918;BME280;22011;59.912;30.300;2022-08-19T01:55:18;102027.63;;;23.54;58.41
35918;BME280;22011;59.912;30.300;2022-08-19T01:57:49;102026.56;;;23.55;58.17
35918;BME280;22011;59.912;30.300;2022-08-19T02:00:20;102024.25;;;23.52;58.65
35918;BME280;22011;59.912;30.300;2022-08-19T02:02:48;102027.28;;;23.37;58.42
35918;BME280;22011;59.912;30.300;2022-08-19T02:05:16;102036.53;;;23.30;58.61
35918;BME280;22011;59.912;30.300;2022-08-19T02:07:44;102032.31;;;23.34;60.02
35918;BME280;22011;59.912;30.300;2022-08-19T02:10:15;102038.22;;;23.24;58.92
35918;BME280;22011;59.912;30.300;2022-08-19T02:12:43;102024.84;;;23.23;59.05
35918;BME280;22011;59.912;30.300;2022-08-19T02:15:11;102027.56;;;23.23;58.89
35918;BME280;22011;59.912;30.300;2022-08-19T02:17:39;102040.53;;;23.27;59.98
35918;BME280;22011;59.912;30.300;2022-08-19T02:20:08;102034.91;;;23.22;59.11
35918;BME280;22011;59.912;30.300;2022-08-19T02:22:36;102028.78;;;23.33;59.98
35918;BME280;22011;59.912;30.300;2022-08-19T02:25:04;102032.16;;;23.29;59.17
35918;BME280;22011;59.912;30.300;2022-08-19T02:27:33;102036.78;;;23.22;59.37
35918;BME280;22011;59.912;30.300;2022-08-19T02:30:01;102034.94;;;23.15;59.14
35918;BME280;22011;59.912;30.300;2022-08-19T02:32:28;102037.03;;;23.13;59.97
35918;BME280;22011;59.912;30.300;2022-08-19T02:34:56;102033.69;;;23.11;59.79
35918;BME280;22011;59.912;30.300;2022-08-19T02:37:24;102037.72;;;23.02;59.73
35918;BME280;22011;59.912;30.300;2022-08-19T02:40:10;102042.56;;;22.94;59.81
35918;BME280;22011;59.912;30.300;2022-08-19T02:42:39;102043.00;;;22.91;60.38
35918;BME280;22011;59.912;30.300;2022-08-19T02:45:09;102045.72;;;22.91;60.61
35918;BME280;22011;59.912;30.300;2022-08-19T02:47:37;102042.16;;;22.90;60.15
35918;BME280;22011;59.912;30.300;2022-08-19T02:50:05;102049.25;;;22.98;60.46
35918;BME280;22011;59.912;30.300;2022-08-19T02:52:33;102049.66;;;23.01;59.92
35918;BME280;22011;59.912;30.300;2022-08-19T02:55:01;102050.06;;;22.98;60.22
35918;BME280;22011;59.912;30.300;2022-08-19T02:57:30;102058.38;;;23.10;59.87
35918;BME280;22011;59.912;30.300;2022-08-19T03:00:00;102057.75;;;23.14;59.82
35918;BME280;22011;59.912;30.300;2022-08-19T03:02:28;102063.66;;;23.43;58.75
35918;BME280;22011;59.912;30.300;2022-08-19T03:04:56;102055.09;;;23.01;60.00
35918;BME280;22011;59.912;30.300;2022-08-19T03:07:24;102071.69;;;22.87;60.37
35918;BME280;22011;59.912;30.300;2022-08-19T03:09:51;102065.22;;;22.88;60.17
35918;BME280;22011;59.912;30.300;2022-08-19T03:12:19;102058.94;;;22.87;60.15
35918;BME280;22011;59.912;30.300;2022-08-19T03:14:46;102057.28;;;22.86;60.42
35918;BME280;22011;59.912;30.300;2022-08-19T03:17:16;102069.19;;;22.85;60.77
35918;BME280;22011;59.912;30.300;2022-08-19T03:19:43;102064.81;;;22.84;60.53
35918;BME280;22011;59.912;30.300;2022-08-19T03:22:11;102063.97;;;22.83;60.30
35918;BME280;22011;59.912;30.300;2022-08-19T03:24:38;102063.97;;;22.83;60.56
35918;BME280;22011;59.912;30.300;2022-08-19T03:27:06;102066.47;;;22.85;60.43
35918;BME280;22011;59.912;30.300;2022-08-19T03:29:36;102065.63;;;22.85;60.88
35918;BME280;22011;59.912;30.300;2022-08-19T03:32:06;102071.50;;;22.81;60.57
35918;BME280;22011;59.912;30.300;2022-08-19T03:34:37;102068.97;;;22.87;60.85
35918;BME280;22011;59.912;30.300;2022-08-19T03:37:07;102067.09;;;22.87;60.68
35918;BME280;22011;59.912;30.300;2022-08-19T03:39:36;102066.06;;;22.81;60.49
35918;BME280;22011;59.912;30.300;2022-08-19T03:42:04;102074.63;;;22.85;61.03
35918;BME280;22011;59.912;30.300;2022-08-19T03:44:32;102073.13;;;22.89;60.28
35918;BME280;22011;59.912;30.300;2022-08-19T03:47:00;102075.16;;;23.00;61.31
35918;BME280;22011;59.912;30.300;2022-08-19T03:49:29;102081.03;;;22.97;60.47
35918;BME280;22011;59.912;30.300;2022-08-19T03:51:59;102075.97;;;23.07;60.58
35918;BME280;22011;59.912;30.300;2022-08-19T03:54:27;102074.28;;;23.06;60.02
35918;BME280;22011;59.912;30.300;2022-08-19T03:56:56;102087.28;;;23.04;60.07
35918;BME280;22011;59.912;30.300;2022-08-19T03:59:26;102090.41;;;23.01;60.17
35918;BME280;22011;59.912;30.300;2022-08-19T04:01:55;102094.38;;;23.05;59.85
35918;BME280;22011;59.912;30.300;2022-08-19T04:04:23;102099.81;;;23.05;59.73
35918;BME280;22011;59.912;30.300;2022-08-19T04:06:51;102098.34;;;23.03;60.02
35918;BME280;22011;59.912;30.300;2022-08-19T04:09:21;102097.69;;;23.14;60.41
35918;BME280;22011;59.912;30.300;2022-08-19T04:11:50;102093.09;;;23.14;60.33
35918;BME280;22011;59.912;30.300;2022-08-19T04:14:23;102090.13;;;23.23;59.96
35918;BME280;22011;59.912;30.300;2022-08-19T04:16:51;102096.59;;;23.22;59.65
35918;BME280;22011;59.912;30.300;2022-08-19T04:19:19;102098.81;;;23.38;59.15
35918;BME280;22011;59.912;30.300;2022-08-19T04:21:50;102102.59;;;23.37;59.52
35918;BME280;22011;59.912;30.300;2022-08-19T04:24:18;102105.56;;;23.29;59.29
35918;BME280;22011;59.912;30.300;2022-08-19T04:26:48;102104.72;;;23.28;59.56
35918;BME280;22011;59.912;30.300;2022-08-19T04:29:19;102112.28;;;23.26;59.96
35918;BME280;22011;59.912;30.300;2022-08-19T04:31:48;102112.31;;;23.20;59.81
35918;BME280;22011;59.912;30.300;2022-08-19T04:34:18;102116.50;;;23.15;59.92
35918;BME280;22011;59.912;30.300;2022-08-19T04:36:48;102109.19;;;23.16;59.76
35918;BME280;22011;59.912;30.300;2022-08-19T04:39:20;102114.00;;;23.14;59.96
35918;BME280;22011;59.912;30.300;2022-08-19T04:41:49;102115.44;;;23.16;59.87
35918;BME280;22011;59.912;30.300;2022-08-19T04:44:40;102111.00;;;23.29;60.12
35918;BME280;22011;59.912;30.300;2022-08-19T04:49:35;102108.53;;;23.65;59.85
35918;BME280;22011;59.912;30.300;2022-08-19T04:52:03;102110.41;;;23.65;59.42
35918;BME280;22011;59.912;30.300;2022-08-19T04:54:30;102108.72;;;23.70;59.55
35918;BME280;22011;59.912;30.300;2022-08-19T04:56:59;102109.19;;;23.61;58.70
35918;BME280;22011;59.912;30.300;2022-08-19T04:59:27;102114.84;;;23.59;58.47
35918;BME280;22011;59.912;30.300;2022-08-19T05:01:54;102114.00;;;23.59;58.38
35918;BME280;22011;59.912;30.300;2022-08-19T05:04:22;102117.44;;;23.79;59.16
35918;BME280;22011;59.912;30.300;2022-08-19T05:06:50;102122.50;;;23.75;59.40
35918;BME280;22011;59.912;30.300;2022-08-19T05:09:18;102115.59;;;23.73;58.04
35918;BME280;22011;59.912;30.300;2022-08-19T05:11:47;102119.50;;;23.84;58.24
35918;BME280;22011;59.912;30.300;2022-08-19T05:14:17;102124.13;;;23.83;58.06
35918;BME280;22011;59.912;30.300;2022-08-19T05:16:47;102124.44;;;23.93;58.24
35918;BME280;22011;59.912;30.300;2022-08-19T05:19:15;102122.84;;;23.86;58.05
35918;BME280;22011;59.912;30.300;2022-08-19T05:22:00;102128.72;;;23.83;58.35
35918;BME280;22011;59.912;30.300;2022-08-19T05:24:45;102131.03;;;23.79;57.76
35918;BME280;22011;59.912;30.300;2022-08-19T05:27:13;102127.53;;;23.97;58.35
35918;BME280;22011;59.912;30.300;2022-08-19T05:29:42;102135.09;;;23.95;58.29
35918;BME280;22011;59.912;30.300;2022-08-19T05:32:09;102134.22;;;24.01;58.03
35918;BME280;22011;59.912;30.300;2022-08-19T05:34:37;102134.44;;;23.99;58.30
35918;BME280;22011;59.912;30.300;2022-08-19T05:37:05;102136.50;;;24.04;58.50
35918;BME280;22011;59.912;30.300;2022-08-19T05:39:35;102138.81;;;24.00;58.52
35918;BME280;22011;59.912;30.300;2022-08-19T05:42:06;102140.16;;;24.16;58.46
35918;BME280;22011;59.912;30.300;2022-08-19T05:44:37;102133.63;;;24.24;57.62
35918;BME280;22011;59.912;30.300;2022-08-19T05:47:07;102142.00;;;24.22;57.33
35918;BME280;22011;59.912;30.300;2022-08-19T05:49:35;102144.47;;;24.55;56.97
35918;BME280;22011;59.912;30.300;2022-08-19T05:52:04;102136.75;;;24.27;57.13
35918;BME280;22011;59.912;30.300;2022-08-19T05:54:32;102139.47;;;24.27;57.36
35918;BME280;22011;59.912;30.300;2022-08-19T05:57:01;102139.66;;;24.32;57.07
35918;BME280;22011;59.912;30.300;2022-08-19T05:59:29;102144.19;;;24.38;56.64
35918;BME280;22011;59.912;30.300;2022-08-19T06:01:56;102137.47;;;24.41;56.38
35918;BME280;22011;59.912;30.300;2022-08-19T06:04:25;102137.78;;;24.51;56.67
35918;BME280;22011;59.912;30.300;2022-08-19T06:06:55;102139.41;;;24.59;56.40
35918;BME280;22011;59.912;30.300;2022-08-19T06:09:24;102141.53;;;24.57;56.29
35918;BME280;22011;59.912;30.300;2022-08-19T06:11:55;102140.78;;;24.68;56.33
35918;BME280;22011;59.912;30.300;2022-08-19T06:14:27;102131.69;;;24.74;55.68
35918;BME280;22011;59.912;30.300;2022-08-19T06:16:56;102136.63;;;24.84;55.51
35918;BME280;22011;59.912;30.300;2022-08-19T06:19:23;102134.88;;;24.89;55.23
35918;BME280;22011;59.912;30.300;2022-08-19T06:21:53;102136.09;;;24.93;55.46
35918;BME280;22011;59.912;30.300;2022-08-19T06:24:23;102135.41;;;24.98;55.43
35918;BME280;22011;59.912;30.300;2022-08-19T06:26:53;102138.06;;;25.04;54.60
35918;BME280;22011;59.912;30.300;2022-08-19T06:29:23;102139.69;;;25.42;54.49
35918;BME280;22011;59.912;30.300;2022-08-19T06:31:53;102141.25;;;25.20;54.70
35918;BME280;22011;59.912;30.300;2022-08-19T06:34:23;102142.69;;;25.22;54.35
35918;BME280;22011;59.912;30.300;2022-08-19T06:36:53;102142.59;;;25.29;54.89
35918;BME280;22011;59.912;30.300;2022-08-19T06:39:24;102141.53;;;25.30;54.67
35918;BME280;22011;59.912;30.300;2022-08-19T06:41:53;102142.72;;;25.34;54.35
35918;BME280;22011;59.912;30.300;2022-08-19T06:44:23;102144.91;;;25.43;54.08
35918;BME280;22011;59.912;30.300;2022-08-19T06:46:52;102149.44;;;25.50;53.93
35918;BME280;22011;59.912;30.300;2022-08-19T06:49:20;102141.19;;;25.56;53.74
35918;BME280;22011;59.912;30.300;2022-08-19T06:51:52;102150.28;;;25.68;54.13
35918;BME280;22011;59.912;30.300;2022-08-19T06:54:22;102150.75;;;25.65;53.47
35918;BME280;22011;59.912;30.300;2022-08-19T06:56:51;102146.38;;;25.76;53.05
35918;BME280;22011;59.912;30.300;2022-08-19T06:59:21;102152.94;;;25.87;52.90
35918;BME280;22011;59.912;30.300;2022-08-19T07:01:54;102152.56;;;25.83;52.95
35918;BME280;22011;59.912;30.300;2022-08-19T07:04:24;102153.28;;;25.79;52.94
35918;BME280;22011;59.912;30.300;2022-08-19T07:06:58;102154.63;;;26.11;52.68
35918;BME280;22011;59.912;30.300;2022-08-19T07:09:26;102150.22;;;25.87;52.94
35918;BME280;22011;59.912;30.300;2022-08-19T07:11:55;102152.25;;;25.91;53.04
35918;BME280;22011;59.912;30.300;2022-08-19T07:14:25;102150.25;;;25.98;53.02
35918;BME280;22011;59.912;30.300;2022-08-19T07:16:55;102155.47;;;26.12;52.05
35918;BME280;22011;59.912;30.300;2022-08-19T07:19:24;102156.06;;;26.25;51.99
35918;BME280;22011;59.912;30.300;2022-08-19T07:21:54;102150.84;;;26.24;51.79
35918;BME280;22011;59.912;30.300;2022-08-19T07:24:25;102149.00;;;26.36;52.20
35918;BME280;22011;59.912;30.300;2022-08-19T07:26:54;102149.22;;;26.34;52.00
35918;BME280;22011;59.912;30.300;2022-08-19T07:29:23;102151.25;;;26.51;50.93
35918;BME280;22011;59.912;30.300;2022-08-19T07:31:53;102155.06;;;26.73;50.16
35918;BME280;22011;59.912;30.300;2022-08-19T07:34:23;102158.25;;;26.82;49.97
35918;BME280;22011;59.912;30.300;2022-08-19T07:36:50;102152.78;;;26.93;48.95
35918;BME280;22011;59.912;30.300;2022-08-19T07:39:22;102165.88;;;27.03;49.23
35918;BME280;22011;59.912;30.300;2022-08-19T07:41:51;102167.22;;;27.17;48.60
35918;BME280;22011;59.912;30.300;2022-08-19T07:44:19;102170.78;;;27.58;48.66
35918;BME280;22011;59.912;30.300;2022-08-19T07:46:50;102168.53;;;27.26;48.60
35918;BME280;22011;59.912;30.300;2022-08-19T07:49:18;102169.94;;;27.29;48.36
35918;BME280;22011;59.912;30.300;2022-08-19T07:51:48;102169.91;;;27.41;47.93
35918;BME280;22011;59.912;30.300;2022-08-19T07:54:19;102176.06;;;27.48;47.51
35918;BME280;22011;59.912;30.300;2022-08-19T07:56:47;102172.41;;;27.42;50.01
35918;BME280;22011;59.912;30.300;2022-08-19T07:59:17;102178.31;;;27.51;48.09
35918;BME280;22011;59.912;30.300;2022-08-19T08:01:45;102171.16;;;27.90;48.97
35918;BME280;22011;59.912;30.300;2022-08-19T08:04:13;102168.31;;;27.56;50.21
35918;BME280;22011;59.912;30.300;2022-08-19T08:06:58;102173.16;;;27.66;46.96
35918;BME280;22011;59.912;30.300;2022-08-19T08:09:44;102173.47;;;27.81;46.46
35918;BME280;22011;59.912;30.300;2022-08-19T08:12:15;102160.28;;;27.95;46.51
35918;BME280;22011;59.912;30.300;2022-08-19T08:14:46;102157.19;;;28.08;45.93
35918;BME280;22011;59.912;30.300;2022-08-19T08:17:16;102163.44;;;28.04;47.20
35918;BME280;22011;59.912;30.300;2022-08-19T08:19:45;102165.59;;;28.18;44.94
35918;BME280;22011;59.912;30.300;2022-08-19T08:22:15;102167.59;;;28.23;45.40
35918;BME280;22011;59.912;30.300;2022-08-19T08:25:01;102165.28;;;28.31;45.49
35918;BME280;22011;59.912;30.300;2022-08-19T08:27:30;102167.84;;;28.38;44.84
35918;BME280;22011;59.912;30.300;2022-08-19T08:29:59;102166.03;;;28.44;44.40
35918;BME280;22011;59.912;30.300;2022-08-19T08:32:27;102157.53;;;28.62;43.06
35918;BME280;22011;59.912;30.300;2022-08-19T08:34:54;102160.16;;;28.74;43.18
35918;BME280;22011;59.912;30.300;2022-08-19T08:37:22;102158.00;;;28.76;43.70
35918;BME280;22011;59.912;30.300;2022-08-19T08:39:49;102166.31;;;28.81;43.66
35918;BME280;22011;59.912;30.300;2022-08-19T08:42:22;102173.03;;;28.90;44.97
35918;BME280;22011;59.912;30.300;2022-08-19T08:44:59;102170.88;;;28.92;43.71
35918;BME280;22011;59.912;30.300;2022-08-19T08:47:33;102175.47;;;28.86;44.40
35918;BME280;22011;59.912;30.300;2022-08-19T08:50:05;102179.88;;;28.87;43.59
35918;BME280;22011;59.912;30.300;2022-08-19T08:52:36;102178.28;;;28.91;42.65
35918;BME280;22011;59.912;30.300;2022-08-19T08:55:11;102179.75;;;28.99;43.35
35918;BME280;22011;59.912;30.300;2022-08-19T08:57:52;102182.16;;;29.17;45.51
35918;BME280;22011;59.912;30.300;2022-08-19T09:00:26;102180.66;;;29.05;44.55
35918;BME280;22011;59.912;30.300;2022-08-19T09:02:56;102176.50;;;29.02;43.46
35918;BME280;22011;59.912;30.300;2022-08-19T09:05:35;102178.59;;;29.17;43.08
35918;BME280;22011;59.912;30.300;2022-08-19T09:08:10;102187.19;;;29.25;43.93
35918;BME280;22011;59.912;30.300;2022-08-19T09:10:44;102186.88;;;29.22;44.06
35918;BME280;22011;59.912;30.300;2022-08-19T09:13:21;102181.00;;;29.35;43.58
35918;BME280;22011;59.912;30.300;2022-08-19T09:15:56;102188.66;;;29.33;43.66
35918;BME280;22011;59.912;30.300;2022-08-19T09:18:38;102188.09;;;29.53;42.38
35918;BME280;22011;59.912;30.300;2022-08-19T09:21:07;102180.38;;;29.28;42.14
35918;BME280;22011;59.912;30.300;2022-08-19T09:23:35;102192.31;;;29.39;42.70
35918;BME280;22011;59.912;30.300;2022-08-19T09:26:07;102177.75;;;29.60;41.00
35918;BME280;22011;59.912;30.300;2022-08-19T09:28:36;102187.97;;;29.65;40.52
35918;BME280;22011;59.912;30.300;2022-08-19T09:31:05;102188.53;;;29.67;42.36
35918;BME280;22011;59.912;30.300;2022-08-19T09:33:33;102189.25;;;29.57;43.72
35918;BME280;22011;59.912;30.300;2022-08-19T09:36:05;102183.09;;;29.72;42.41
35918;BME280;22011;59.912;30.300;2022-08-19T09:38:34;102182.66;;;29.58;40.92
35918;BME280;22011;59.912;30.300;2022-08-19T09:41:03;102177.94;;;29.53;41.00
35918;BME280;22011;59.912;30.300;2022-08-19T09:43:32;102180.44;;;29.55;42.13
35918;BME280;22011;59.912;30.300;2022-08-19T09:46:05;102178.91;;;29.64;40.33
35918;BME280;22011;59.912;30.300;2022-08-19T09:48:35;102175.25;;;29.58;42.43
35918;BME280;22011;59.912;30.300;2022-08-19T09:51:04;102185.28;;;29.70;42.94
35918;BME280;22011;59.912;30.300;2022-08-19T09:53:34;102184.69;;;29.68;41.93
35918;BME280;22011;59.912;30.300;2022-08-19T09:56:03;102181.50;;;29.76;40.27
35918;BME280;22011;59.912;30.300;2022-08-19T09:58:32;102181.84;;;29.84;38.60
35918;BME280;22011;59.912;30.300;2022-08-19T10:01:01;102185.53;;;29.95;36.61
35918;BME280;22011;59.912;30.300;2022-08-19T10:03:31;102189.81;;;30.08;39.39
35918;BME280;22011;59.912;30.300;2022-08-19T10:06:01;102192.69;;;29.96;39.67
35918;BME280;22011;59.912;30.300;2022-08-19T10:08:31;102188.00;;;29.97;39.30
35918;BME280;22011;59.912;30.300;2022-08-19T10:11:00;102182.25;;;29.98;37.22
35918;BME280;22011;59.912;30.300;2022-08-19T10:13:29;102172.44;;;30.02;38.37
35918;BME280;22011;59.912;30.300;2022-08-19T10:16:04;102178.28;;;30.11;39.37
35918;BME280;22011;59.912;30.300;2022-08-19T10:18:33;102181.03;;;30.11;37.51
35918;BME280;22011;59.912;30.300;2022-08-19T10:21:05;102176.97;;;30.23;34.87
35918;BME280;22011;59.912;30.300;2022-08-19T10:23:36;102170.25;;;30.04;36.38
35918;BME280;22011;59.912;30.300;2022-08-19T10:26:05;102174.97;;;30.09;37.31
35918;BME280;22011;59.912;30.300;2022-08-19T10:28:33;102175.53;;;30.48;37.66
35918;BME280;22011;59.912;30.300;2022-08-19T10:31:04;102174.84;;;30.31;33.67
35918;BME280;22011;59.912;30.300;2022-08-19T10:33:34;102177.44;;;30.47;33.33
35918;BME280;22011;59.912;30.300;2022-08-19T10:36:03;102175.00;;;30.51;33.36
35918;BME280;22011;59.912;30.300;2022-08-19T10:38:31;102181.03;;;30.48;33.39
35918;BME280;22011;59.912;30.300;2022-08-19T10:41:06;102183.69;;;30.70;33.84
35918;BME280;22011;59.912;30.300;2022-08-19T10:43:34;102171.28;;;30.67;33.21
35918;BME280;22011;59.912;30.300;2022-08-19T10:46:05;102182.06;;;30.74;33.49
35918;BME280;22011;59.912;30.300;2022-08-19T10:48:34;102174.41;;;30.86;32.89
35918;BME280;22011;59.912;30.300;2022-08-19T10:51:02;102168.88;;;30.81;32.72
35918;BME280;22011;59.912;30.300;2022-08-19T10:53:47;102165.53;;;30.74;32.74
35918;BME280;22011;59.912;30.300;2022-08-19T10:56:14;102174.28;;;30.66;33.65
35918;BME280;22011;59.912;30.300;2022-08-19T10:58:59;102165.81;;;30.72;32.91
35918;BME280;22011;59.912;30.300;2022-08-19T11:01:29;102168.63;;;30.82;32.90
35918;BME280;22011;59.912;30.300;2022-08-19T11:04:01;102167.56;;;30.88;32.95
35918;BME280;22011;59.912;30.300;2022-08-19T11:06:31;102177.44;;;30.84;32.64
35918;BME280;22011;59.912;30.300;2022-08-19T11:08:58;102167.72;;;31.19;33.52
35918;BME280;22011;59.912;30.300;2022-08-19T11:11:26;102166.44;;;30.84;32.50
35918;BME280;22011;59.912;30.300;2022-08-19T11:13:54;102157.00;;;30.70;37.83
35918;BME280;22011;59.912;30.300;2022-08-19T11:16:24;102160.72;;;30.54;37.49
35918;BME280;22011;59.912;30.300;2022-08-19T11:18:55;102168.13;;;30.53;35.53
35918;BME280;22011;59.912;30.300;2022-08-19T11:21:28;102170.13;;;30.58;36.15
35918;BME280;22011;59.912;30.300;2022-08-19T11:24:00;102162.19;;;30.67;35.53
35918;BME280;22011;59.912;30.300;2022-08-19T11:26:30;102171.72;;;30.54;33.92
35918;BME280;22011;59.912;30.300;2022-08-19T11:28:58;102165.53;;;30.37;36.81
35918;BME280;22011;59.912;30.300;2022-08-19T11:31:29;102153.47;;;30.43;35.90
35918;BME280;22011;59.912;30.300;2022-08-19T11:33:57;102154.75;;;30.30;34.76
35918;BME280;22011;59.912;30.300;2022-08-19T11:36:27;102158.38;;;30.36;36.17
35918;BME280;22011;59.912;30.300;2022-08-19T11:38:55;102162.84;;;30.47;33.17
35918;BME280;22011;59.912;30.300;2022-08-19T11:41:23;102165.53;;;30.37;34.55
35918;BME280;22011;59.912;30.300;2022-08-19T11:43:52;102157.81;;;30.34;35.45
35918;BME280;22011;59.912;30.300;2022-08-19T11:46:22;102165.03;;;30.45;33.36
35918;BME280;22011;59.912;30.300;2022-08-19T11:48:50;102160.59;;;30.39;34.43
35918;BME280;22011;59.912;30.300;2022-08-19T11:51:19;102158.16;;;30.42;35.45
35918;BME280;22011;59.912;30.300;2022-08-19T11:53:49;102159.06;;;30.53;34.58
35918;BME280;22011;59.912;30.300;2022-08-19T11:56:17;102167.72;;;30.35;35.55
35918;BME280;22011;59.912;30.300;2022-08-19T11:58:46;102149.91;;;30.42;33.65
35918;BME280;22011;59.912;30.300;2022-08-19T12:01:15;102160.34;;;30.40;34.40
35918;BME280;22011;59.912;30.300;2022-08-19T12:03:43;102160.94;;;30.47;35.29
35918;BME280;22011;59.912;30.300;2022-08-19T12:06:13;102155.97;;;30.44;34.80
35918;BME280;22011;59.912;30.300;2022-08-19T12:08:40;102171.06;;;30.79;35.33
35918;BME280;22011;59.912;30.300;2022-08-19T12:11:11;102168.59;;;30.40;34.53
35918;BME280;22011;59.912;30.300;2022-08-19T12:13:40;102171.25;;;30.30;36.24
35918;BME280;22011;59.912;30.300;2022-08-19T12:16:13;102159.13;;;30.26;33.53
35918;BME280;22011;59.912;30.300;2022-08-19T12:18:42;102153.91;;;30.24;33.85
35918;BME280;22011;59.912;30.300;2022-08-19T12:21:11;102155.50;;;30.20;34.81
35918;BME280;22011;59.912;30.300;2022-08-19T12:23:39;102159.09;;;30.21;34.31
35918;BME280;22011;59.912;30.300;2022-08-19T12:26:10;102161.84;;;30.21;35.32
35918;BME280;22011;59.912;30.300;2022-08-19T12:28:38;102169.22;;;30.10;35.03
35918;BME280;22011;59.912;30.300;2022-08-19T12:31:08;102160.44;;;30.13;34.53
35918;BME280;22011;59.912;30.300;2022-08-19T12:33:38;102154.41;;;30.21;33.64
35918;BME280;22011;59.912;30.300;2022-08-19T12:36:08;102154.19;;;30.28;34.12
35918;BME280;22011;59.912;30.300;2022-08-19T12:38:36;102145.94;;;30.28;34.31
35918;BME280;22011;59.912;30.300;2022-08-19T12:41:05;102146.22;;;30.26;34.42
35918;BME280;22011;59.912;30.300;2022-08-19T12:43:35;102150.69;;;30.38;35.95
35918;BME280;22011;59.912;30.300;2022-08-19T12:46:04;102138.19;;;30.20;36.80
35918;BME280;22011;59.912;30.300;2022-08-19T12:48:33;102145.13;;;30.27;34.36
35918;BME280;22011;59.912;30.300;2022-08-19T12:51:05;102146.22;;;30.26;36.37
35918;BME280;22011;59.912;30.300;2022-08-19T12:53:33;102140.53;;;30.38;34.18
35918;BME280;22011;59.912;30.300;2022-08-19T12:56:02;102147.44;;;30.46;33.81